createdAt,value
2023-04-19T00:00:47.408Z,8.77
2023-04-19T00:03:16.110Z,8.50
2023-04-19T00:05:44.893Z,7.82
2023-04-19T00:08:13.148Z,9.65
2023-04-19T00:10:41.110Z,7.57
2023-04-19T00:13:08.894Z,8.00
2023-04-19T00:15:38.674Z,6.53
2023-04-19T00:18:06.578Z,6.88
2023-04-19T00:20:34.577Z,10.25
2023-04-19T00:23:02.251Z,9.45
2023-04-19T00:25:32.201Z,6.78
2023-04-19T00:28:00.178Z,11.68
2023-04-19T00:30:28.050Z,8.90
2023-04-19T00:32:56.041Z,8.77
2023-04-19T00:35:28.930Z,8.60
2023-04-19T00:37:56.748Z,8.68
2023-04-19T00:40:24.804Z,7.90
2023-04-19T00:42:52.749Z,7.65
2023-04-19T00:45:20.700Z,9.65
2023-04-19T00:47:48.555Z,8.82
2023-04-19T00:50:16.603Z,9.00
2023-04-19T00:52:45.028Z,8.95
2023-04-19T00:55:13.402Z,9.85
2023-04-19T00:57:41.700Z,6.57
2023-04-19T01:00:11.335Z,8.35
2023-04-19T01:02:39.423Z,8.80
2023-04-19T01:05:08.149Z,10.32
2023-04-19T01:07:36.082Z,8.98
2023-04-19T01:10:03.892Z,9.13
2023-04-19T01:12:31.899Z,8.73
2023-04-19T01:14:59.565Z,8.38
2023-04-19T01:17:29.032Z,8.25
2023-04-19T01:20:02.929Z,8.98
2023-04-19T01:22:32.236Z,8.23
2023-04-19T01:24:59.803Z,8.57
2023-04-19T01:27:27.545Z,9.30
2023-04-19T01:29:55.180Z,9.68
2023-04-19T01:32:27.276Z,7.90
2023-04-19T01:34:56.945Z,8.57
2023-04-19T01:37:24.888Z,7.72
2023-04-19T01:39:52.417Z,10.20
2023-04-19T01:42:20.207Z,8.77
2023-04-19T01:44:48.247Z,8.75
2023-04-19T01:47:16.058Z,9.02
2023-04-19T01:49:43.952Z,9.48
2023-04-19T01:52:12.320Z,8.40
2023-04-19T01:54:40.079Z,8.48
2023-04-19T01:57:08.320Z,9.25
2023-04-19T01:59:36.010Z,9.18
2023-04-19T02:02:06.969Z,8.00
2023-04-19T02:04:35.423Z,9.15
2023-04-19T02:07:03.756Z,9.00
2023-04-19T02:09:31.632Z,8.05
2023-04-19T02:11:59.657Z,9.00
2023-04-19T02:14:27.484Z,9.52
2023-04-19T02:16:55.604Z,8.63
2023-04-19T02:19:23.564Z,8.40
2023-04-19T02:21:52.186Z,8.40
2023-04-19T02:24:20.177Z,9.77
2023-04-19T02:26:51.326Z,9.45
2023-04-19T02:29:19.570Z,9.15
2023-04-19T02:31:47.421Z,10.63
2023-04-19T02:34:15.405Z,10.55
2023-04-19T02:36:43.247Z,12.27
2023-04-19T02:39:11.334Z,12.15
2023-04-19T02:41:39.845Z,13.25
2023-04-19T02:44:07.517Z,14.20
2023-04-19T02:46:35.460Z,11.43
2023-04-19T02:49:03.726Z,12.38
2023-04-19T02:51:31.658Z,13.75
2023-04-19T02:53:59.535Z,13.90
2023-04-19T02:56:27.682Z,12.82
2023-04-19T02:58:57.299Z,12.57
2023-04-19T03:01:25.223Z,11.40
2023-04-19T03:03:53.088Z,12.20
2023-04-19T03:06:21.376Z,10.70
2023-04-19T03:08:49.393Z,11.80
2023-04-19T03:11:19.533Z,12.40
2023-04-19T03:13:47.986Z,11.00
2023-04-19T03:16:19.041Z,11.20
2023-04-19T03:18:49.358Z,10.85
2023-04-19T03:21:21.309Z,12.57
2023-04-19T03:23:54.906Z,11.40
2023-04-19T03:26:23.587Z,9.88
2023-04-19T03:28:54.296Z,10.98
2023-04-19T03:31:40.438Z,12.57
2023-04-19T03:34:11.780Z,14.18
2023-04-19T03:36:43.245Z,13.80
2023-04-19T03:39:11.125Z,13.35
2023-04-19T03:41:41.801Z,13.43
2023-04-19T03:44:18.225Z,16.10
2023-04-19T03:46:48.853Z,15.25
2023-04-19T03:49:20.753Z,15.35
2023-04-19T03:51:53.712Z,14.45
2023-04-19T03:54:21.464Z,14.68
2023-04-19T03:56:49.374Z,13.18
2023-04-19T03:59:17.101Z,14.23
2023-04-19T04:01:46.559Z,13.27
2023-04-19T04:04:15.116Z,15.15
2023-04-19T04:06:43.396Z,14.45
2023-04-19T04:09:11.319Z,12.15
2023-04-19T04:11:39.096Z,12.85
2023-04-19T04:14:07.802Z,16.70
2023-04-19T04:16:38.631Z,14.27
2023-04-19T04:19:06.795Z,15.07
2023-04-19T04:21:37.554Z,15.15
2023-04-19T04:24:08.196Z,13.77
2023-04-19T04:27:01.213Z,14.63
2023-04-19T04:29:33.709Z,14.35
2023-04-19T04:32:08.708Z,14.05
2023-04-19T04:34:40.855Z,13.70
2023-04-19T04:37:12.687Z,14.73
2023-04-19T04:39:40.956Z,12.63
2023-04-19T04:42:10.512Z,13.20
2023-04-19T04:44:42.350Z,15.82
2023-04-19T04:47:13.615Z,14.80
2023-04-19T04:49:48.422Z,16.27
2023-04-19T04:52:17.594Z,14.75
2023-04-19T04:54:58.096Z,13.32
2023-04-19T04:57:31.265Z,14.88
2023-04-19T05:00:00.338Z,16.38
2023-04-19T05:02:34.495Z,16.80
2023-04-19T05:05:03.694Z,15.85
2023-04-19T05:07:31.500Z,16.05
2023-04-19T05:10:02.471Z,14.95
2023-04-19T05:12:38.671Z,16.02
2023-04-19T05:15:07.732Z,16.67
2023-04-19T05:17:38.006Z,18.52
2023-04-19T05:20:07.747Z,16.38
2023-04-19T05:22:36.467Z,15.52
2023-04-19T05:25:06.888Z,15.65
2023-04-19T05:27:34.939Z,14.10
2023-04-19T05:30:04.087Z,16.48
2023-04-19T05:32:32.950Z,16.50
2023-04-19T05:35:04.331Z,15.32
2023-04-19T05:37:32.584Z,15.23
2023-04-19T05:40:01.073Z,14.85
2023-04-19T05:42:29.225Z,16.33
2023-04-19T05:44:57.417Z,14.52
2023-04-19T05:47:25.416Z,16.27
2023-04-19T05:50:26.052Z,14.13
2023-04-19T05:53:36.286Z,14.80
2023-04-19T05:56:04.444Z,14.40
2023-04-19T05:58:32.269Z,17.23
2023-04-19T06:01:04.660Z,16.02
2023-04-19T06:03:33.860Z,16.65
2023-04-19T06:06:05.612Z,14.23
2023-04-19T06:08:33.553Z,15.82
2023-04-19T06:11:08.314Z,17.35
2023-04-19T06:13:45.433Z,16.08
2023-04-19T06:16:16.240Z,16.38
2023-04-19T06:18:44.110Z,15.02
2023-04-19T06:21:11.922Z,15.50
2023-04-19T06:23:39.486Z,15.57
2023-04-19T06:26:07.267Z,14.57
2023-04-19T06:28:35.307Z,15.05
2023-04-19T06:31:03.389Z,16.17
2023-04-19T06:33:31.656Z,15.18
2023-04-19T06:35:59.514Z,17.52
2023-04-19T06:38:27.101Z,15.55
2023-04-19T06:40:54.866Z,14.60
2023-04-19T06:43:22.549Z,13.80
2023-04-19T06:45:57.707Z,12.73
2023-04-19T06:48:26.220Z,13.27
2023-04-19T06:50:54.536Z,14.05
2023-04-19T06:53:22.659Z,16.50
2023-04-19T06:55:53.909Z,18.25
2023-04-19T06:58:21.522Z,15.90
2023-04-19T07:00:49.353Z,17.13
2023-04-19T07:03:17.070Z,14.70
2023-04-19T07:05:45.102Z,16.70
2023-04-19T07:08:12.716Z,18.00
2023-04-19T07:10:40.643Z,14.98
2023-04-19T07:13:08.214Z,16.20
2023-04-19T07:15:36.037Z,15.30
2023-04-19T07:18:03.946Z,14.45
2023-04-19T07:20:31.874Z,17.52
2023-04-19T07:22:59.928Z,14.98
2023-04-19T07:25:28.178Z,13.10
2023-04-19T07:27:56.742Z,13.18
2023-04-19T07:30:24.983Z,16.05
2023-04-19T07:32:54.044Z,16.90
2023-04-19T07:35:22.333Z,14.82
2023-04-19T07:37:50.144Z,14.77
2023-04-19T07:40:18.173Z,16.77
2023-04-19T07:42:46.547Z,14.50
2023-04-19T07:45:14.811Z,13.63
2023-04-19T07:47:42.404Z,12.60
2023-04-19T07:50:10.938Z,14.43
2023-04-19T07:52:38.659Z,16.10
2023-04-19T07:55:07.133Z,17.50
2023-04-19T07:57:36.072Z,19.25
2023-04-19T08:00:05.013Z,16.65
2023-04-19T08:02:49.794Z,17.42
2023-04-19T08:05:18.046Z,15.63
2023-04-19T08:07:46.497Z,17.77
2023-04-19T08:10:13.996Z,20.23
2023-04-19T08:12:53.535Z,19.92
2023-04-19T08:16:15.220Z,16.48
2023-04-19T08:18:17.221Z,17.50
2023-04-19T08:20:48.846Z,15.90
2023-04-19T08:23:22.715Z,14.95
2023-04-19T08:25:53.651Z,17.13
2023-04-19T08:28:21.258Z,16.80
2023-04-19T08:30:49.181Z,13.73
2023-04-19T08:33:16.892Z,13.90
2023-04-19T08:35:45.762Z,16.23
2023-04-19T08:38:13.410Z,14.13
2023-04-19T08:40:51.830Z,13.80
2023-04-19T08:43:20.462Z,17.15
2023-04-19T08:45:51.682Z,15.65
2023-04-19T08:48:19.530Z,16.20
2023-04-19T08:50:56.492Z,13.70
2023-04-19T08:53:33.609Z,16.50
2023-04-19T09:01:12.927Z,15.15
2023-04-19T09:03:59.396Z,14.50
2023-04-19T09:06:37.385Z,13.65
2023-04-19T09:11:50.262Z,17.52
2023-04-19T09:14:19.968Z,16.52
2023-04-19T09:16:48.422Z,15.93
2023-04-19T09:19:24.161Z,16.35
2023-04-19T09:21:54.891Z,15.15
2023-04-19T09:27:34.215Z,13.05
2023-04-19T09:30:03.241Z,16.33
2023-04-19T09:32:47.184Z,15.52
2023-04-19T09:35:15.094Z,14.32
2023-04-19T09:40:24.335Z,10.88
2023-04-19T09:48:04.109Z,13.63
2023-04-19T09:50:32.707Z,11.05
2023-04-19T09:53:02.349Z,11.63
2023-04-19T09:55:38.358Z,11.88
2023-04-19T09:58:12.654Z,12.82
2023-04-19T10:00:47.983Z,11.90
2023-04-19T10:03:18.664Z,9.23
2023-04-19T10:05:46.585Z,10.35
2023-04-19T10:08:15.436Z,9.95
2023-04-19T10:10:45.611Z,11.25
2023-04-19T10:13:20.564Z,11.93
2023-04-19T10:15:54.016Z,9.18
2023-04-19T10:18:33.132Z,11.30
2023-04-19T10:21:05.590Z,12.98
2023-04-19T10:23:33.942Z,9.52
2023-04-19T10:26:01.385Z,10.70
2023-04-19T10:28:32.395Z,12.15
2023-04-19T10:31:04.600Z,12.73
2023-04-19T10:33:36.049Z,11.20
2023-04-19T10:36:03.983Z,11.18
2023-04-19T10:38:40.195Z,11.32
2023-04-19T10:41:14.630Z,11.10
2023-04-19T10:43:46.317Z,9.88
2023-04-19T10:46:20.982Z,9.60
2023-04-19T10:49:01.619Z,11.90
2023-04-19T10:51:34.031Z,10.38
2023-04-19T10:54:03.635Z,10.82
2023-04-19T10:56:34.246Z,8.13
2023-04-19T10:59:02.426Z,9.57
2023-04-19T11:01:40.968Z,10.63
2023-04-19T11:04:10.470Z,9.35
2023-04-19T11:07:01.630Z,9.02
2023-04-19T11:09:39.154Z,9.73
2023-04-19T11:12:14.555Z,9.60
2023-04-19T11:14:43.804Z,9.00
2023-04-19T11:17:20.984Z,8.75
2023-04-19T11:20:07.411Z,9.13
2023-04-19T11:22:40.035Z,7.70
2023-04-19T11:25:19.288Z,7.95
2023-04-19T11:27:49.593Z,7.07
2023-04-19T11:30:20.212Z,7.72
2023-04-19T11:32:53.290Z,6.70
2023-04-19T11:35:26.103Z,8.93
2023-04-19T11:37:54.737Z,7.55
2023-04-19T11:40:23.947Z,7.63
2023-04-19T11:42:56.242Z,8.57
2023-04-19T11:45:32.166Z,7.40
2023-04-19T11:48:04.407Z,6.00
2023-04-19T11:50:42.738Z,6.20
2023-04-19T11:53:21.275Z,4.65
2023-04-19T11:55:53.503Z,6.30
2023-04-19T11:58:29.527Z,6.57
2023-04-19T12:01:02.861Z,6.55
2023-04-19T12:03:30.736Z,6.68
2023-04-19T12:06:03.666Z,6.15
2023-04-19T12:08:37.508Z,5.60
2023-04-19T12:11:06.615Z,6.30
2023-04-19T12:13:34.781Z,4.45
2023-04-19T12:16:02.869Z,3.10
2023-04-19T12:18:50.164Z,2.92
2023-04-19T12:21:34.519Z,3.38
2023-04-19T12:24:03.705Z,5.53
2023-04-19T12:26:31.545Z,3.60
2023-04-19T12:29:00.905Z,2.72
2023-04-19T12:31:28.742Z,4.13
2023-04-19T12:33:56.267Z,4.40
2023-04-19T12:36:23.811Z,3.85
2023-04-19T12:38:51.860Z,3.28
2023-04-19T12:41:19.508Z,3.03
2023-04-19T12:43:47.260Z,4.72
2023-04-19T12:46:14.991Z,4.35
2023-04-19T12:48:42.592Z,4.90
2023-04-19T12:51:10.243Z,4.32
2023-04-19T12:53:37.764Z,4.22
2023-04-19T12:56:06.198Z,4.03
2023-04-19T12:58:33.592Z,2.58
2023-04-19T13:01:01.333Z,4.68
2023-04-19T13:03:33.201Z,3.67
2023-04-19T13:06:01.152Z,2.75
2023-04-19T13:08:44.113Z,3.45
2023-04-19T13:11:14.439Z,2.78
2023-04-19T13:13:42.134Z,3.25
2023-04-19T13:16:09.646Z,3.97
2023-04-19T13:18:37.104Z,3.30
2023-04-19T13:21:06.697Z,1.92
2023-04-19T13:23:35.815Z,2.08
2023-04-19T13:26:03.274Z,1.65
2023-04-19T13:28:31.260Z,2.50
2023-04-19T13:30:58.848Z,2.03
2023-04-19T13:33:27.063Z,2.38
2023-04-19T13:35:54.609Z,2.95
2023-04-19T13:38:22.946Z,2.67
2023-04-19T13:40:50.978Z,3.08
2023-04-19T13:43:18.697Z,3.50
2023-04-19T13:45:46.515Z,3.67
2023-04-19T13:48:13.908Z,2.90
2023-04-19T13:50:41.434Z,3.97
2023-04-19T13:53:09.052Z,3.78
2023-04-19T13:55:37.104Z,2.97
2023-04-19T13:58:04.618Z,3.22
2023-04-19T14:00:32.320Z,4.00
2023-04-19T14:03:00.011Z,3.97
2023-04-19T14:05:27.818Z,5.35
2023-04-19T14:07:55.282Z,4.90
2023-04-19T14:10:22.761Z,4.82
2023-04-19T14:12:52.725Z,4.88
2023-04-19T14:15:21.050Z,4.57
2023-04-19T14:17:48.491Z,5.32
2023-04-19T14:20:17.018Z,4.65
2023-04-19T14:22:45.600Z,3.78
2023-04-19T14:25:15.248Z,3.83
2023-04-19T14:27:42.675Z,5.57
2023-04-19T14:30:10.602Z,3.55
2023-04-19T14:32:38.493Z,4.90
2023-04-19T14:35:08.531Z,3.78
2023-04-19T14:37:36.103Z,3.35
2023-04-19T14:40:04.059Z,3.85
2023-04-19T14:42:31.527Z,3.40
2023-04-19T14:44:59.158Z,3.95
2023-04-19T14:47:26.748Z,4.07
2023-04-19T14:49:54.644Z,4.13
2023-04-19T14:52:21.986Z,4.13
2023-04-19T14:54:49.349Z,3.25
2023-04-19T14:57:16.781Z,3.38
2023-04-19T14:59:44.394Z,4.05
2023-04-19T15:02:13.629Z,2.88
2023-04-19T15:04:42.166Z,3.03
2023-04-19T15:07:10.090Z,3.25
2023-04-19T15:09:37.536Z,5.05
2023-04-19T15:12:05.041Z,3.15
2023-04-19T15:14:32.431Z,2.78
2023-04-19T15:16:59.767Z,3.60
2023-04-19T15:19:28.321Z,4.05
2023-04-19T15:21:57.065Z,2.47
2023-04-19T15:24:24.676Z,2.28
2023-04-19T15:26:52.023Z,2.85
2023-04-19T15:29:19.520Z,2.25
2023-04-19T15:31:46.986Z,2.13
2023-04-19T15:34:14.651Z,2.95
2023-04-19T15:36:42.104Z,3.35
2023-04-19T15:39:09.623Z,2.95
2023-04-19T15:41:36.978Z,2.50
2023-04-19T15:44:04.288Z,3.40
2023-04-19T15:46:31.664Z,2.97
2023-04-19T15:48:59.028Z,2.95
2023-04-19T15:51:27.620Z,3.22
2023-04-19T15:53:55.186Z,2.83
2023-04-19T15:56:22.499Z,2.22
2023-04-19T15:58:49.802Z,2.47
2023-04-19T16:01:19.112Z,2.40
2023-04-19T16:03:46.872Z,2.33
2023-04-19T16:06:14.308Z,2.25
2023-04-19T16:08:41.613Z,1.63
2023-04-19T16:11:09.057Z,2.25
2023-04-19T16:13:36.448Z,1.88
2023-04-19T16:16:03.965Z,2.17
2023-04-19T16:18:31.322Z,1.45
2023-04-19T16:20:58.666Z,1.38
2023-04-19T16:23:26.093Z,1.70
2023-04-19T16:25:54.873Z,1.30
2023-04-19T16:28:24.156Z,1.20
2023-04-19T16:30:51.556Z,1.83
2023-04-19T16:33:18.853Z,1.48
2023-04-19T16:35:46.189Z,1.45
2023-04-19T16:38:13.594Z,1.60
2023-04-19T16:40:40.987Z,1.70
2023-04-19T16:43:08.350Z,0.95
2023-04-19T16:45:35.833Z,1.20
2023-04-19T16:48:03.518Z,1.38
2023-04-19T16:50:30.952Z,1.10
2023-04-19T16:52:58.491Z,0.75
2023-04-19T16:55:25.896Z,1.10
2023-04-19T16:57:55.640Z,1.40
2023-04-19T17:00:23.478Z,1.33
2023-04-19T17:02:52.149Z,1.10
2023-04-19T17:05:20.249Z,1.20
2023-04-19T17:07:47.566Z,0.90
2023-04-19T17:10:14.947Z,1.13
2023-04-19T17:12:42.419Z,1.73
2023-04-19T17:15:10.315Z,1.20
2023-04-19T17:17:37.755Z,0.90
2023-04-19T17:20:06.289Z,1.20
2023-04-19T17:22:33.695Z,1.45
2023-04-19T17:25:01.215Z,1.50
2023-04-19T17:27:28.664Z,1.50
2023-04-19T17:29:56.562Z,2.03
2023-04-19T17:32:23.997Z,1.85
2023-04-19T17:34:51.395Z,1.52
2023-04-19T17:37:19.432Z,1.33
2023-04-19T17:39:46.964Z,1.27
2023-04-19T17:42:14.640Z,1.50
2023-04-19T17:44:42.192Z,1.35
2023-04-19T17:47:09.684Z,1.20
2023-04-19T17:49:37.050Z,1.77
2023-04-19T17:54:58.978Z,1.60
2023-04-19T17:57:29.239Z,2.17
2023-04-19T17:59:56.875Z,2.10
2023-04-19T18:02:24.772Z,2.17
2023-04-19T18:04:55.404Z,1.00
2023-04-19T18:07:22.842Z,1.67
2023-04-19T18:09:50.451Z,1.92
2023-04-19T18:12:18.240Z,1.77
2023-04-19T18:14:45.683Z,1.77
2023-04-19T18:17:13.225Z,1.90
2023-04-19T18:19:40.765Z,2.00
2023-04-19T18:22:08.848Z,1.52
2023-04-19T18:24:36.425Z,1.98
2023-04-19T18:27:04.375Z,2.08
2023-04-19T18:29:32.111Z,1.80
2023-04-19T18:31:59.578Z,1.83
2023-04-19T18:34:27.311Z,1.80
2023-04-19T18:37:00.833Z,1.70
2023-04-19T18:39:29.116Z,1.30
2023-04-19T18:41:58.247Z,2.65
2023-04-19T18:44:49.630Z,1.65
2023-04-19T18:47:13.729Z,1.92
2023-04-19T18:49:42.597Z,2.20
2023-04-19T18:52:15.232Z,1.67
2023-04-19T18:54:43.267Z,1.85
2023-04-19T18:57:23.258Z,1.67
2023-04-19T18:59:57.424Z,1.85
2023-04-19T19:02:25.789Z,1.63
2023-04-19T19:04:57.650Z,1.40
2023-04-19T19:07:36.419Z,1.45
2023-04-19T19:12:39.972Z,1.65
2023-04-19T19:15:08.700Z,1.30
2023-04-19T19:17:36.909Z,1.30
2023-04-19T19:20:06.953Z,1.90
2023-04-19T19:22:35.558Z,2.38
2023-04-19T19:25:04.420Z,1.70
2023-04-19T19:27:32.246Z,1.17
2023-04-19T19:29:59.990Z,2.10
2023-04-19T19:32:28.070Z,1.42
2023-04-19T19:35:03.167Z,1.10
2023-04-19T19:37:32.947Z,1.35
2023-04-19T19:40:04.201Z,0.90
2023-04-19T19:42:37.137Z,1.42
2023-04-19T19:45:06.172Z,1.40
2023-04-19T19:47:35.616Z,1.27
2023-04-19T19:52:37.594Z,0.90
2023-04-19T19:55:05.508Z,1.15
2023-04-19T20:00:22.856Z,0.90
2023-04-19T20:02:56.070Z,1.58
2023-04-19T20:05:25.316Z,1.00
2023-04-19T20:08:02.011Z,0.82
2023-04-19T20:10:32.644Z,1.02
2023-04-19T20:13:01.639Z,1.20
2023-04-19T20:15:30.412Z,0.70
2023-04-19T20:17:58.249Z,0.95
2023-04-19T20:20:26.148Z,1.52
2023-04-19T20:22:53.852Z,1.00
2023-04-19T20:25:21.851Z,0.80
2023-04-19T20:27:49.430Z,0.68
2023-04-19T20:30:17.269Z,0.75
2023-04-19T20:32:44.782Z,1.10
2023-04-19T20:35:12.636Z,1.25
2023-04-19T20:37:40.409Z,0.90
2023-04-19T20:40:12.226Z,0.85
2023-04-19T20:42:40.098Z,0.73
2023-04-19T20:45:11.892Z,0.70
2023-04-19T20:47:39.510Z,0.70
2023-04-19T20:50:08.135Z,0.80
2023-04-19T20:52:35.952Z,0.70
2023-04-19T20:55:03.728Z,1.00
2023-04-19T20:57:31.632Z,1.08
2023-04-19T21:00:00.742Z,0.60
2023-04-19T21:02:28.620Z,0.80
2023-04-19T21:04:56.462Z,0.60
2023-04-19T21:07:24.376Z,1.45
2023-04-19T21:09:52.473Z,0.68
2023-04-19T21:12:20.117Z,0.80
2023-04-19T21:14:49.424Z,1.30
2023-04-19T21:17:17.287Z,1.00
2023-04-19T21:19:44.953Z,0.80
2023-04-19T21:22:16.466Z,0.88
2023-04-19T21:24:44.265Z,0.95
2023-04-19T21:27:11.977Z,0.70
2023-04-19T21:29:40.019Z,0.70
2023-04-19T21:32:07.847Z,1.08
2023-04-19T21:34:35.660Z,0.50
2023-04-19T21:37:06.549Z,1.00
2023-04-19T21:39:34.608Z,0.90
2023-04-19T21:42:02.290Z,0.90
2023-04-19T21:44:30.160Z,1.25
2023-04-19T21:46:57.911Z,0.70
2023-04-19T21:49:25.761Z,1.10
2023-04-19T21:51:54.066Z,0.70
2023-04-19T21:54:33.287Z,0.95
2023-04-19T21:57:02.406Z,0.90
2023-04-19T21:59:34.104Z,0.90
2023-04-19T22:02:01.860Z,1.15
2023-04-19T22:04:32.934Z,1.00
2023-04-19T22:07:03.410Z,1.25
2023-04-19T22:09:31.260Z,0.93
2023-04-19T22:12:00.349Z,0.73
2023-04-19T22:14:28.627Z,0.82
2023-04-19T22:16:56.879Z,0.90
2023-04-19T22:19:24.990Z,0.90
2023-04-19T22:21:53.662Z,1.05
2023-04-19T22:24:22.703Z,0.85
2023-04-19T22:26:51.248Z,1.33
2023-04-19T22:29:20.414Z,0.70
2023-04-19T22:31:48.213Z,0.70
2023-04-19T22:34:16.483Z,1.38
2023-04-19T22:36:44.126Z,1.10
2023-04-19T22:39:12.104Z,0.88
2023-04-19T22:41:39.848Z,0.68
2023-04-19T22:44:07.912Z,0.90
2023-04-19T22:46:37.245Z,1.40
2023-04-19T22:49:05.134Z,0.80
2023-04-19T22:51:32.807Z,0.90
2023-04-19T22:54:00.870Z,1.10
2023-04-19T22:56:28.700Z,0.75
2023-04-19T22:58:57.080Z,0.75
2023-04-19T23:01:24.905Z,0.50
2023-04-19T23:03:52.760Z,0.75
2023-04-19T23:06:20.294Z,1.00
2023-04-19T23:08:48.202Z,0.70
2023-04-19T23:11:16.204Z,0.93
2023-04-19T23:13:44.552Z,0.70
2023-04-19T23:16:13.103Z,1.10
2023-04-19T23:18:40.836Z,0.82
2023-04-19T23:21:08.897Z,1.45
2023-04-19T23:23:36.712Z,0.80
2023-04-19T23:26:04.528Z,0.68
2023-04-19T23:28:32.605Z,0.80
2023-04-19T23:31:01.002Z,0.82
2023-04-19T23:33:28.875Z,0.68
2023-04-19T23:35:56.682Z,0.98
2023-04-19T23:38:24.899Z,0.98
2023-04-19T23:40:53.097Z,0.77
2023-04-19T23:43:20.875Z,0.70
2023-04-19T23:45:48.765Z,0.65
2023-04-19T23:48:17.744Z,0.70
2023-04-19T23:50:45.624Z,0.93
2023-04-19T23:53:13.542Z,0.90
2023-04-19T23:55:41.357Z,0.70
2023-04-19T23:58:09.341Z,0.65
